createdAt,value
2023-04-05T00:00:06.709Z,4.30
2023-04-05T00:01:06.694Z,3.70
2023-04-05T00:02:06.718Z,4.10
2023-04-05T00:03:06.725Z,3.80
2023-04-05T00:04:06.735Z,4.10
2023-04-05T00:05:06.626Z,4.20
2023-04-05T00:06:06.622Z,4.60
2023-04-05T00:07:06.591Z,4.60
2023-04-05T00:08:06.614Z,4.60
2023-04-05T00:09:06.564Z,4.40
2023-04-05T00:10:06.563Z,4.50
2023-04-05T00:11:06.567Z,4.70
2023-04-05T00:12:06.530Z,4.40
2023-04-05T00:13:06.516Z,4.80
2023-04-05T00:14:06.527Z,4.80
2023-04-05T00:15:06.491Z,4.90
2023-04-05T00:16:06.527Z,4.90
2023-04-05T00:17:06.479Z,5.00
2023-04-05T00:18:06.457Z,4.60
2023-04-05T00:19:06.439Z,4.60
2023-04-05T00:20:06.427Z,4.70
2023-04-05T00:21:06.421Z,4.70
2023-04-05T00:22:06.473Z,5.20
2023-04-05T00:23:06.397Z,4.80
2023-04-05T00:24:06.407Z,4.80
2023-04-05T00:25:06.364Z,4.60
2023-04-05T00:26:06.369Z,4.50
2023-04-05T00:27:06.345Z,4.40
2023-04-05T00:28:06.333Z,4.60
2023-04-05T00:29:06.311Z,4.50
2023-04-05T00:30:06.304Z,4.50
2023-04-05T00:31:06.366Z,4.10
2023-04-05T00:32:06.352Z,4.30
2023-04-05T00:33:06.316Z,4.40
2023-04-05T00:34:06.250Z,4.30
2023-04-05T00:35:06.231Z,4.30
2023-04-05T00:36:06.230Z,4.50
2023-04-05T00:37:06.228Z,4.30
2023-04-05T00:38:06.197Z,4.40
2023-04-05T00:39:06.184Z,4.00
2023-04-05T00:40:06.187Z,3.90
2023-04-05T00:41:06.175Z,4.10
2023-04-05T00:42:06.160Z,4.00
2023-04-05T00:43:06.128Z,4.10
2023-04-05T00:44:06.117Z,4.50
2023-04-05T00:45:06.103Z,4.00
2023-04-05T00:46:06.139Z,4.20
2023-04-05T00:47:06.103Z,4.50
2023-04-05T00:48:06.117Z,4.30
2023-04-05T00:49:06.054Z,4.50
2023-04-05T00:50:06.052Z,3.80
2023-04-05T00:51:06.054Z,4.60
2023-04-05T00:52:06.014Z,4.10
2023-04-05T00:53:06.010Z,4.30
2023-04-05T00:54:05.990Z,4.20
2023-04-05T00:55:05.990Z,4.20
2023-04-05T00:56:05.980Z,4.30
2023-04-05T00:57:05.972Z,4.00
2023-04-05T00:58:05.950Z,3.80
2023-04-05T00:59:05.961Z,4.20
2023-04-05T01:00:05.943Z,4.30
2023-04-05T01:01:05.901Z,4.30
2023-04-05T01:02:05.901Z,4.10
2023-04-05T01:03:05.926Z,4.10
2023-04-05T01:04:05.922Z,4.10
2023-04-05T01:05:05.854Z,4.50
2023-04-05T01:06:05.830Z,4.00
2023-04-05T01:07:05.835Z,4.10
2023-04-05T01:08:05.816Z,4.20
2023-04-05T01:09:05.793Z,4.60
2023-04-05T01:10:05.794Z,4.40
2023-04-05T01:11:05.776Z,4.30
2023-04-05T01:12:05.778Z,4.30
2023-04-05T01:13:05.740Z,4.30
2023-04-05T01:14:05.731Z,4.40
2023-04-05T01:15:05.759Z,4.20
2023-04-05T01:16:05.785Z,4.40
2023-04-05T01:17:05.702Z,4.30
2023-04-05T01:18:05.705Z,4.60
2023-04-05T01:19:05.664Z,4.70
2023-04-05T01:20:05.674Z,4.60
2023-04-05T01:21:05.640Z,4.30
2023-04-05T01:22:05.647Z,4.60
2023-04-05T01:23:05.618Z,4.40
2023-04-05T01:24:05.628Z,4.50
2023-04-05T01:25:05.587Z,4.50
2023-04-05T01:26:05.581Z,4.60
2023-04-05T01:27:05.588Z,4.90
2023-04-05T01:28:05.562Z,4.40
2023-04-05T01:29:05.534Z,4.20
2023-04-05T01:30:05.530Z,4.10
2023-04-05T01:31:05.570Z,4.30
2023-04-05T01:32:05.508Z,4.00
2023-04-05T01:33:05.492Z,4.30
2023-04-05T01:34:05.473Z,4.00
2023-04-05T01:35:05.476Z,4.30
2023-04-05T01:36:05.601Z,4.20
2023-04-05T01:37:05.477Z,4.00
2023-04-05T01:38:05.424Z,4.10
2023-04-05T01:39:05.420Z,4.40
2023-04-05T01:40:05.393Z,4.00
2023-04-05T01:41:05.399Z,4.20
2023-04-05T01:42:05.385Z,4.10
2023-04-05T01:43:05.357Z,4.20
2023-04-05T01:44:05.346Z,4.40
2023-04-05T01:45:05.330Z,4.10
2023-04-05T01:46:05.331Z,3.80
2023-04-05T01:47:05.319Z,3.90
2023-04-05T01:48:05.307Z,4.00
2023-04-05T01:49:05.285Z,4.30
2023-04-05T01:50:05.269Z,3.90
2023-04-05T01:51:05.254Z,4.20
2023-04-05T01:52:05.277Z,4.20
2023-04-05T01:53:05.229Z,4.30
2023-04-05T01:54:05.216Z,4.70
2023-04-05T01:55:05.208Z,4.90
2023-04-05T01:56:05.196Z,4.50
2023-04-05T01:57:05.202Z,4.20
2023-04-05T01:58:05.165Z,4.50
2023-04-05T01:59:05.191Z,4.60
2023-04-05T02:00:05.146Z,4.50
2023-04-05T02:01:05.145Z,4.70
2023-04-05T02:02:05.140Z,4.50
2023-04-05T02:03:05.156Z,4.30
2023-04-05T02:04:05.095Z,4.40
2023-04-05T02:05:05.087Z,4.70
2023-04-05T02:06:05.062Z,4.40
2023-04-05T02:07:05.066Z,4.20
2023-04-05T02:08:05.103Z,4.70
2023-04-05T02:09:05.027Z,4.70
2023-04-05T02:10:05.022Z,4.70
2023-04-05T02:11:04.996Z,4.60
2023-04-05T02:12:05.028Z,4.50
2023-04-05T02:13:04.982Z,4.50
2023-04-05T02:14:04.961Z,4.30
2023-04-05T02:15:04.953Z,4.20
2023-04-05T02:16:04.958Z,4.00
2023-04-05T02:17:04.955Z,4.50
2023-04-05T02:18:04.939Z,5.20
2023-04-05T02:19:04.899Z,5.70
2023-04-05T02:20:04.890Z,6.10
2023-04-05T02:21:04.897Z,5.50
2023-04-05T02:22:04.859Z,5.30
2023-04-05T02:23:04.867Z,5.50
2023-04-05T02:24:04.878Z,5.80
2023-04-05T02:25:04.830Z,5.50
2023-04-05T02:26:04.817Z,5.00
2023-04-05T02:27:04.833Z,5.40
2023-04-05T02:28:04.810Z,5.40
2023-04-05T02:29:04.769Z,5.20
2023-04-05T02:30:04.784Z,4.90
2023-04-05T02:31:04.748Z,4.40
2023-04-05T02:32:04.858Z,4.60
2023-04-05T02:33:04.769Z,4.80
2023-04-05T02:34:04.715Z,4.70
2023-04-05T02:35:04.694Z,4.90
2023-04-05T02:36:04.696Z,5.00
2023-04-05T02:37:04.692Z,4.90
2023-04-05T02:38:04.684Z,5.10
2023-04-05T02:39:04.649Z,5.20
2023-04-05T02:40:04.658Z,5.20
2023-04-05T02:41:04.619Z,5.10
2023-04-05T02:42:04.616Z,5.40
2023-04-05T02:43:04.592Z,5.80
2023-04-05T02:44:04.574Z,5.70
2023-04-05T02:45:04.565Z,6.30
2023-04-05T02:46:04.574Z,6.20
2023-04-05T02:47:04.837Z,6.60
2023-04-05T02:48:04.577Z,6.20
2023-04-05T02:49:04.513Z,6.50
2023-04-05T02:50:04.491Z,6.00
2023-04-05T02:51:04.486Z,6.80
2023-04-05T02:52:04.484Z,6.50
2023-04-05T02:53:04.459Z,6.30
2023-04-05T02:54:04.445Z,7.00
2023-04-05T02:55:04.428Z,6.50
2023-04-05T02:56:04.439Z,6.40
2023-04-05T02:57:04.421Z,6.50
2023-04-05T02:58:04.390Z,6.70
2023-04-05T02:59:04.434Z,7.00
2023-04-05T03:00:04.362Z,6.60
2023-04-05T03:01:04.364Z,6.60
2023-04-05T03:02:04.362Z,6.50
2023-04-05T03:03:04.379Z,5.90
2023-04-05T03:04:04.327Z,7.00
2023-04-05T03:05:04.309Z,6.30
2023-04-05T03:06:04.289Z,6.20
2023-04-05T03:07:04.276Z,6.30
2023-04-05T03:08:04.275Z,6.40
2023-04-05T03:09:04.247Z,6.20
2023-04-05T03:10:04.235Z,6.30
2023-04-05T03:11:04.269Z,6.20
2023-04-05T03:12:04.225Z,6.30
2023-04-05T03:13:04.212Z,5.70
2023-04-05T03:14:04.187Z,6.30
2023-04-05T03:15:04.171Z,6.20
2023-04-05T03:16:04.161Z,6.60
2023-04-05T03:17:04.177Z,6.00
2023-04-05T03:18:04.189Z,6.40
2023-04-05T03:19:04.125Z,6.20
2023-04-05T03:20:04.104Z,6.20
2023-04-05T03:21:04.125Z,6.00
2023-04-05T03:22:04.086Z,7.00
2023-04-05T03:23:04.085Z,6.50
2023-04-05T03:24:04.067Z,6.80
2023-04-05T03:25:04.042Z,6.60
2023-04-05T03:26:04.033Z,6.30
2023-04-05T03:27:04.016Z,6.60
2023-04-05T03:28:04.042Z,6.70
2023-04-05T03:29:03.998Z,6.80
2023-04-05T03:30:03.978Z,6.50
2023-04-05T03:31:04.000Z,7.40
2023-04-05T03:32:03.953Z,7.10
2023-04-05T03:33:03.999Z,7.30
2023-04-05T03:34:03.930Z,7.80
2023-04-05T03:35:03.947Z,7.50
2023-04-05T03:36:03.937Z,7.00
2023-04-05T03:37:03.896Z,7.20
2023-04-05T03:38:03.892Z,6.70
2023-04-05T03:39:03.868Z,7.10
2023-04-05T03:40:03.849Z,7.40
2023-04-05T03:41:03.845Z,6.70
2023-04-05T03:42:03.835Z,6.30
2023-04-05T03:43:03.823Z,6.70
2023-04-05T03:44:03.822Z,6.60
2023-04-05T03:45:03.787Z,6.10
2023-04-05T03:46:03.835Z,6.70
2023-04-05T03:47:03.774Z,6.30
2023-04-05T03:48:03.810Z,6.40
2023-04-05T03:49:03.735Z,6.20
2023-04-05T03:50:03.730Z,6.10
2023-04-05T03:51:03.717Z,6.80
2023-04-05T03:52:03.703Z,6.70
2023-04-05T03:53:03.697Z,6.80
2023-04-05T03:54:03.681Z,6.70
2023-04-05T03:55:03.661Z,6.70
2023-04-05T03:56:03.650Z,6.60
2023-04-05T03:57:03.646Z,6.50
2023-04-05T03:58:03.660Z,6.50
2023-04-05T03:59:03.644Z,6.30
2023-04-05T04:00:03.612Z,6.80
2023-04-05T04:01:03.580Z,6.50
2023-04-05T04:02:03.597Z,6.60
2023-04-05T04:03:03.594Z,6.70
2023-04-05T04:04:03.540Z,6.50
2023-04-05T04:05:03.567Z,6.60
2023-04-05T04:06:03.599Z,6.90
2023-04-05T04:07:03.503Z,7.20
2023-04-05T04:08:03.505Z,6.90
2023-04-05T04:09:03.479Z,7.30
2023-04-05T04:10:03.468Z,6.90
2023-04-05T04:11:03.508Z,8.20
2023-04-05T04:12:03.438Z,10.00
2023-04-05T04:13:03.446Z,14.00
2023-04-05T04:14:03.410Z,17.10
2023-04-05T04:15:03.399Z,17.10
2023-04-05T04:16:03.435Z,16.60
2023-04-05T04:17:03.376Z,13.40
2023-04-05T04:18:03.475Z,13.30
2023-04-05T04:19:03.352Z,11.10
2023-04-05T04:20:03.361Z,8.50
2023-04-05T04:21:03.330Z,8.80
2023-04-05T04:22:03.344Z,8.30
2023-04-05T04:23:03.337Z,7.80
2023-04-05T04:24:03.289Z,6.60
2023-04-05T04:25:03.273Z,6.40
2023-04-05T04:26:03.289Z,6.50
2023-04-05T04:27:03.245Z,7.10
2023-04-05T04:28:03.247Z,7.50
2023-04-05T04:29:03.222Z,7.50
2023-04-05T04:30:03.216Z,8.50
2023-04-05T04:31:03.196Z,8.20
2023-04-05T04:32:03.265Z,8.70
2023-04-05T04:33:03.219Z,9.00
2023-04-05T04:34:03.197Z,8.50
2023-04-05T04:35:03.150Z,8.50
2023-04-05T04:36:03.164Z,7.80
2023-04-05T04:37:03.128Z,7.60
2023-04-05T04:38:03.125Z,7.50
2023-04-05T04:39:03.108Z,7.40
2023-04-05T04:40:03.093Z,7.60
2023-04-05T04:41:03.079Z,7.50
2023-04-05T04:42:03.063Z,7.20
2023-04-05T04:43:03.068Z,7.30
2023-04-05T04:44:03.062Z,7.80
2023-04-05T04:45:03.092Z,8.30
2023-04-05T04:46:03.080Z,8.60
2023-04-05T04:47:03.007Z,8.80
2023-04-05T04:48:03.044Z,8.40
2023-04-05T04:49:02.976Z,8.10
2023-04-05T04:50:02.976Z,8.70
2023-04-05T04:51:02.962Z,8.80
2023-04-05T04:52:02.935Z,8.40
2023-04-05T04:53:02.940Z,8.80
2023-04-05T04:54:02.918Z,8.40
2023-04-05T04:55:02.898Z,8.30
2023-04-05T04:56:02.907Z,8.50
2023-04-05T04:57:02.881Z,8.30
2023-04-05T04:58:02.879Z,7.90
2023-04-05T04:59:02.939Z,7.80
2023-04-05T05:00:02.856Z,7.90
2023-04-05T05:01:02.833Z,7.80
2023-04-05T05:02:02.813Z,7.50
2023-04-05T05:03:02.843Z,7.90
2023-04-05T05:04:02.854Z,7.90
2023-04-05T05:05:02.791Z,7.90
2023-04-05T05:06:02.765Z,7.80
2023-04-05T05:07:02.759Z,8.10
2023-04-05T05:08:02.776Z,7.80
2023-04-05T05:09:02.731Z,7.90
2023-04-05T05:10:02.808Z,8.00
2023-04-05T05:11:02.703Z,7.70
2023-04-05T05:12:02.693Z,7.40
2023-04-05T05:13:02.698Z,7.80
2023-04-05T05:14:02.686Z,7.80
2023-04-05T05:15:02.675Z,8.20
2023-04-05T05:16:02.670Z,8.00
2023-04-05T05:17:02.762Z,8.00
2023-04-05T05:18:02.672Z,8.30
2023-04-05T05:19:02.605Z,8.30
2023-04-05T05:20:02.619Z,8.50
2023-04-05T05:21:02.589Z,8.40
2023-04-05T05:22:02.585Z,8.50
2023-04-05T05:23:02.579Z,8.50
2023-04-05T05:24:02.557Z,8.20
2023-04-05T05:25:02.528Z,7.60
2023-04-05T05:26:02.521Z,7.80
2023-04-05T05:27:02.508Z,8.70
2023-04-05T05:28:02.497Z,8.10
2023-04-05T05:29:02.502Z,7.80
2023-04-05T05:30:02.471Z,7.40
2023-04-05T05:31:02.491Z,7.40
2023-04-05T05:32:02.449Z,6.90
2023-04-05T05:33:02.489Z,7.00
2023-04-05T05:34:02.440Z,7.20
2023-04-05T05:35:02.412Z,7.70
2023-04-05T05:36:02.454Z,14.10
2023-04-05T05:37:02.386Z,18.50
2023-04-05T05:38:02.368Z,16.20
2023-04-05T05:39:02.374Z,14.30
2023-04-05T05:40:02.338Z,13.50
2023-04-05T05:41:02.325Z,14.40
2023-04-05T05:42:02.323Z,10.80
2023-04-05T05:43:02.313Z,12.20
2023-04-05T05:44:02.307Z,8.90
2023-04-05T05:45:02.269Z,10.60
2023-04-05T05:46:02.287Z,10.20
2023-04-05T05:47:02.251Z,8.30
2023-04-05T05:48:02.280Z,8.40
2023-04-05T05:49:02.230Z,8.30
2023-04-05T05:50:02.208Z,6.70
2023-04-05T05:51:02.200Z,7.60
2023-04-05T05:52:02.198Z,7.50
2023-04-05T05:53:02.178Z,7.20
2023-04-05T05:54:02.192Z,6.80
2023-04-05T05:55:02.157Z,6.50
2023-04-05T05:56:02.134Z,6.30
2023-04-05T05:57:02.148Z,6.20
2023-04-05T05:58:02.136Z,5.80
2023-04-05T05:59:02.139Z,5.70
2023-04-05T06:00:02.178Z,5.70
2023-04-05T06:01:02.076Z,5.20
2023-04-05T06:02:02.057Z,5.40
2023-04-05T06:03:02.121Z,5.40
2023-04-05T06:04:02.148Z,5.90
2023-04-05T06:05:02.203Z,5.30
2023-04-05T06:06:02.000Z,5.40
2023-04-05T06:07:02.001Z,5.60
2023-04-05T06:08:02.018Z,5.30
2023-04-05T06:09:01.988Z,5.70
2023-04-05T06:10:01.949Z,5.50
2023-04-05T06:11:01.940Z,5.50
2023-04-05T06:12:01.977Z,5.10
2023-04-05T06:13:01.933Z,5.20
2023-04-05T06:14:01.915Z,5.00
2023-04-05T06:15:01.914Z,4.80
2023-04-05T06:16:01.971Z,4.60
2023-04-05T06:17:01.877Z,4.40
2023-04-05T06:18:01.871Z,4.50
2023-04-05T06:19:01.872Z,4.40
2023-04-05T06:20:01.882Z,4.90
2023-04-05T06:21:01.812Z,4.50
2023-04-05T06:22:01.828Z,4.60
2023-04-05T06:23:01.787Z,4.40
2023-04-05T06:24:01.803Z,4.40
2023-04-05T06:25:01.761Z,4.40
2023-04-05T06:26:01.767Z,4.50
2023-04-05T06:27:01.746Z,4.50
2023-04-05T06:28:01.739Z,4.50
2023-04-05T06:29:01.748Z,4.30
2023-04-05T06:30:01.699Z,4.50
2023-04-05T06:31:01.676Z,4.50
2023-04-05T06:32:01.757Z,4.50
2023-04-05T06:33:01.688Z,4.40
2023-04-05T06:34:01.646Z,4.60
2023-04-05T06:35:01.623Z,4.40
2023-04-05T06:36:01.621Z,4.60
2023-04-05T06:37:01.625Z,4.60
2023-04-05T06:38:01.629Z,5.00
2023-04-05T06:39:01.646Z,4.60
2023-04-05T06:40:01.587Z,4.60
2023-04-05T06:41:01.554Z,4.30
2023-04-05T06:42:01.605Z,5.00
2023-04-05T06:43:01.605Z,5.00
2023-04-05T06:44:01.539Z,5.20
2023-04-05T06:45:01.486Z,5.10
2023-04-05T06:46:01.520Z,4.80
2023-04-05T06:47:01.496Z,5.10
2023-04-05T06:48:01.518Z,5.30
2023-04-05T06:49:03.797Z,5.00
2023-04-05T06:50:01.425Z,5.30
2023-04-05T06:51:01.419Z,5.10
2023-04-05T06:52:01.416Z,4.90
2023-04-05T06:53:01.383Z,5.20
2023-04-05T06:54:01.399Z,5.20
2023-04-05T06:55:01.467Z,5.60
2023-04-05T06:56:01.397Z,5.50
2023-04-05T06:57:02.044Z,6.60
2023-04-05T06:58:01.354Z,6.40
2023-04-05T06:59:01.382Z,5.90
2023-04-05T07:00:01.292Z,6.10
2023-04-05T07:01:01.319Z,6.70
2023-04-05T07:02:01.270Z,5.90
2023-04-05T07:03:01.271Z,5.90
2023-04-05T07:04:01.307Z,5.90
2023-04-05T07:05:01.228Z,5.50
2023-04-05T07:06:01.305Z,5.20
2023-04-05T07:07:01.233Z,4.80
2023-04-05T07:08:01.273Z,5.30
2023-04-05T07:09:01.214Z,5.00
2023-04-05T07:10:01.187Z,8.30
2023-04-05T07:11:01.160Z,5.10
2023-04-05T07:12:01.175Z,4.80
2023-04-05T07:13:01.137Z,4.90
2023-04-05T07:14:01.144Z,4.90
2023-04-05T07:15:01.131Z,5.10
2023-04-05T07:16:01.192Z,5.10
2023-04-05T07:17:01.079Z,5.00
2023-04-05T07:18:01.102Z,4.90
2023-04-05T07:19:01.039Z,5.10
2023-04-05T07:20:01.130Z,5.00
2023-04-05T07:21:01.021Z,4.80
2023-04-05T07:22:00.997Z,4.90
2023-04-05T07:23:00.986Z,4.60
2023-04-05T07:24:00.975Z,4.50
2023-04-05T07:25:00.981Z,4.30
2023-04-05T07:26:00.948Z,4.70
2023-04-05T07:27:00.962Z,4.70
2023-04-05T07:28:00.958Z,4.50
2023-04-05T07:29:00.911Z,4.20
2023-04-05T07:30:00.907Z,4.40
2023-04-05T07:31:00.896Z,4.30
2023-04-05T07:32:00.924Z,4.00
2023-04-05T07:33:00.936Z,4.20
2023-04-05T07:34:00.841Z,4.20
2023-04-05T07:35:00.864Z,4.30
2023-04-05T07:36:00.847Z,4.20
2023-04-05T07:37:00.820Z,3.80
2023-04-05T07:38:00.790Z,3.90
2023-04-05T07:39:00.881Z,3.70
2023-04-05T07:40:00.806Z,4.10
2023-04-05T07:41:00.962Z,4.30
2023-04-05T07:42:00.789Z,4.10
2023-04-05T07:43:00.763Z,4.40
2023-04-05T07:44:00.762Z,4.10
2023-04-05T07:45:00.785Z,4.00
2023-04-05T07:46:00.835Z,4.30
2023-04-05T07:47:00.661Z,3.80
2023-04-05T07:48:00.739Z,3.60
2023-04-05T07:49:00.669Z,3.80
2023-04-05T07:50:00.651Z,3.70
2023-04-05T07:51:00.610Z,3.80
2023-04-05T07:52:00.601Z,3.50
2023-04-05T07:53:00.587Z,3.50
2023-04-05T07:54:01.935Z,3.60
2023-04-05T07:55:00.566Z,3.40
2023-04-05T07:56:00.541Z,3.50
2023-04-05T07:57:00.544Z,3.50
2023-04-05T07:58:00.528Z,3.20
2023-04-05T07:59:00.555Z,3.50
2023-04-05T08:00:00.525Z,3.50
2023-04-05T08:01:00.483Z,3.40
2023-04-05T08:02:08.184Z,3.40
2023-04-05T08:03:02.207Z,3.40
2023-04-05T08:04:00.471Z,3.50
2023-04-05T08:05:00.516Z,3.30
2023-04-05T08:06:00.407Z,3.40
2023-04-05T08:07:00.445Z,3.20
2023-04-05T08:08:00.392Z,3.20
2023-04-05T08:09:00.371Z,3.20
2023-04-05T08:10:00.493Z,3.10
2023-04-05T08:11:00.344Z,3.10
2023-04-05T08:12:00.328Z,3.00
2023-04-05T08:13:00.355Z,3.30
2023-04-05T08:14:00.328Z,3.40
2023-04-05T08:15:00.338Z,3.00
2023-04-05T08:16:00.324Z,3.20
2023-04-05T08:17:00.327Z,3.30
2023-04-05T08:18:00.393Z,3.20
2023-04-05T08:19:00.258Z,3.20
2023-04-05T08:20:00.237Z,3.10
2023-04-05T08:21:00.211Z,3.00
2023-04-05T08:22:00.203Z,3.20
2023-04-05T08:23:00.183Z,2.90
2023-04-05T08:24:00.208Z,2.80
2023-04-05T08:25:00.238Z,3.10
2023-04-05T08:26:00.146Z,3.10
2023-04-05T08:27:00.203Z,2.90
2023-04-05T08:28:00.174Z,3.00
2023-04-05T08:29:00.122Z,3.00
2023-04-05T08:30:00.190Z,2.90
2023-04-05T08:31:00.120Z,2.80
2023-04-05T08:32:00.164Z,2.80
2023-04-05T08:33:00.104Z,2.80
2023-04-05T08:34:00.774Z,3.00
2023-04-05T08:35:00.033Z,3.10
2023-04-05T08:36:00.046Z,2.70
2023-04-05T08:37:00.174Z,2.90
2023-04-05T08:37:59.988Z,3.00
2023-04-05T08:38:59.993Z,2.60
2023-04-05T08:39:59.962Z,2.80
2023-04-05T08:40:59.943Z,2.80
2023-04-05T08:41:59.933Z,2.70
2023-04-05T08:42:59.931Z,2.70
2023-04-05T08:43:59.954Z,2.70
2023-04-05T08:44:59.918Z,2.80
2023-04-05T08:45:59.957Z,3.00
2023-04-05T08:47:00.049Z,2.90
2023-04-05T08:48:00.008Z,2.70
2023-04-05T08:48:59.852Z,3.00
2023-04-05T08:49:59.882Z,2.70
2023-04-05T08:50:59.832Z,3.00
2023-04-05T08:51:59.815Z,2.80
2023-04-05T08:52:59.802Z,2.70
2023-04-05T08:53:59.786Z,2.80
2023-04-05T08:54:59.793Z,2.80
2023-04-05T08:55:59.757Z,2.90
2023-04-05T08:56:59.756Z,2.70
2023-04-05T08:57:59.738Z,2.60
2023-04-05T08:58:59.752Z,2.60
2023-04-05T08:59:59.732Z,2.60
2023-04-05T09:00:59.745Z,2.90
2023-04-05T09:02:01.740Z,2.60
2023-04-05T09:02:59.699Z,2.70
2023-04-05T09:03:59.680Z,2.60
2023-04-05T09:04:59.681Z,2.80
2023-04-05T09:05:59.628Z,2.60
2023-04-05T09:06:59.739Z,2.80
2023-04-05T09:07:59.632Z,2.70
2023-04-05T09:08:59.595Z,3.70
2023-04-05T09:09:59.596Z,4.90
2023-04-05T09:10:59.606Z,11.70
2023-04-05T09:11:59.561Z,7.40
2023-04-05T09:12:59.538Z,2.90
2023-04-05T09:13:59.524Z,2.60
2023-04-05T09:14:59.535Z,2.70
2023-04-05T09:15:59.502Z,3.00
2023-04-05T09:16:59.564Z,2.90
2023-04-05T09:17:59.483Z,2.90
2023-04-05T09:18:59.460Z,2.60
2023-04-05T09:19:59.498Z,2.80
2023-04-05T09:20:59.433Z,2.90
2023-04-05T09:21:59.418Z,2.70
2023-04-05T09:22:59.409Z,3.00
2023-04-05T09:23:59.400Z,2.80
2023-04-05T09:24:59.396Z,2.70
2023-04-05T09:25:59.418Z,3.10
2023-04-05T09:26:59.352Z,3.00
2023-04-05T09:27:59.348Z,3.20
2023-04-05T09:28:59.331Z,2.90
2023-04-05T09:29:59.336Z,3.10
2023-04-05T09:30:59.322Z,2.90
2023-04-05T09:31:59.292Z,2.70
2023-04-05T09:32:59.330Z,2.70
2023-04-05T09:33:59.274Z,2.80
2023-04-05T09:34:59.284Z,2.80
2023-04-05T09:35:59.300Z,2.60
2023-04-05T09:36:59.227Z,2.80
2023-04-05T09:37:59.212Z,2.70
2023-04-05T09:38:59.205Z,2.50
2023-04-05T09:39:59.233Z,2.90
2023-04-05T09:40:59.201Z,2.70
2023-04-05T09:41:59.164Z,2.60
2023-04-05T09:42:59.152Z,2.50
2023-04-05T09:43:59.136Z,2.80
2023-04-05T09:44:59.141Z,2.60
2023-04-05T09:45:59.164Z,2.60
2023-04-05T09:46:59.105Z,2.60
2023-04-05T09:47:59.188Z,2.50
2023-04-05T09:48:59.075Z,2.50
2023-04-05T09:49:59.081Z,2.50
2023-04-05T09:51:03.780Z,2.60
2023-04-05T09:51:59.066Z,2.60
2023-04-05T09:52:59.020Z,2.60
2023-04-05T09:53:59.056Z,2.60
2023-04-05T09:54:59.016Z,2.70
2023-04-05T09:55:58.982Z,2.80
2023-04-05T09:56:59.005Z,2.70
2023-04-05T09:57:58.960Z,2.50
2023-04-05T09:58:58.957Z,2.40
2023-04-05T09:59:58.952Z,2.60
2023-04-05T10:01:06.678Z,2.50
2023-04-05T10:01:59.926Z,2.50
2023-04-05T10:02:58.936Z,2.90
2023-04-05T10:03:58.987Z,2.50
2023-04-05T10:04:58.884Z,2.60
2023-04-05T10:05:58.850Z,2.70
2023-04-05T10:06:58.894Z,2.50
2023-04-05T10:07:58.878Z,2.70
2023-04-05T10:08:58.818Z,2.70
2023-04-05T10:09:58.827Z,2.80
2023-04-05T10:10:58.782Z,2.50
2023-04-05T10:11:58.775Z,2.40
2023-04-05T10:12:58.756Z,2.70
2023-04-05T10:13:58.742Z,2.60
2023-04-05T10:14:58.750Z,2.60
2023-04-05T10:15:58.751Z,2.80
2023-04-05T10:16:58.704Z,2.60
2023-04-05T10:17:58.775Z,2.70
2023-04-05T10:18:58.680Z,2.40
2023-04-05T10:19:58.754Z,2.60
2023-04-05T10:20:58.655Z,2.50
2023-04-05T10:21:58.640Z,2.50
2023-04-05T10:22:58.628Z,2.60
2023-04-05T10:23:58.638Z,2.70
2023-04-05T10:24:58.634Z,2.50
2023-04-05T10:25:58.593Z,2.50
2023-04-05T10:26:58.582Z,2.60
2023-04-05T10:27:58.586Z,2.70
2023-04-05T10:28:58.565Z,2.40
2023-04-05T10:29:58.543Z,2.60
2023-04-05T10:30:58.543Z,2.70
2023-04-05T10:31:58.543Z,2.60
2023-04-05T10:32:58.772Z,2.90
2023-04-05T10:33:58.486Z,2.90
2023-04-05T10:34:58.496Z,2.80
2023-04-05T10:35:58.529Z,2.90
2023-04-05T10:36:58.443Z,2.90
2023-04-05T10:37:58.451Z,2.80
2023-04-05T10:39:00.221Z,2.90
2023-04-05T10:39:58.430Z,2.90
2023-04-05T10:40:58.439Z,2.70
2023-04-05T10:41:58.384Z,2.50
2023-04-05T10:42:58.423Z,2.70
2023-04-05T10:43:58.384Z,2.80
2023-04-05T10:44:58.346Z,2.70
2023-04-05T10:45:58.366Z,2.60
2023-04-05T10:46:58.338Z,3.00
2023-04-05T10:47:58.351Z,2.80
2023-04-05T10:48:58.350Z,2.90
2023-04-05T10:49:58.298Z,2.80
2023-04-05T10:50:58.363Z,2.90
2023-04-05T10:51:58.250Z,2.80
2023-04-05T10:52:58.237Z,3.10
2023-04-05T10:53:58.226Z,2.80
2023-04-05T10:54:58.234Z,2.90
2023-04-05T10:55:58.315Z,3.00
2023-04-05T10:56:58.183Z,2.80
2023-04-05T10:57:58.304Z,3.00
2023-04-05T10:58:58.222Z,2.90
2023-04-05T10:59:58.215Z,2.80
2023-04-05T11:00:58.206Z,2.90
2023-04-05T11:01:58.211Z,2.90
2023-04-05T11:02:58.180Z,2.80
2023-04-05T11:03:58.137Z,3.10
2023-04-05T11:04:58.772Z,2.90
2023-04-05T11:05:58.107Z,3.20
2023-04-05T11:06:58.062Z,2.60
2023-04-05T11:07:58.042Z,2.50
2023-04-05T11:08:58.036Z,2.70
2023-04-05T11:09:58.032Z,2.60
2023-04-05T11:10:58.026Z,2.80
2023-04-05T11:11:58.013Z,3.30
2023-04-05T11:12:57.986Z,2.90
2023-04-05T11:13:57.981Z,2.90
2023-04-05T11:14:57.966Z,2.70
2023-04-05T11:15:57.975Z,2.90
2023-04-05T11:16:57.942Z,2.60
2023-04-05T11:17:58.039Z,3.10
2023-04-05T11:18:57.908Z,2.70
2023-04-05T11:19:57.893Z,2.80
2023-04-05T11:20:57.906Z,2.90
2023-04-05T11:21:57.869Z,2.80
2023-04-05T11:22:57.869Z,3.10
2023-04-05T11:23:57.841Z,2.70
2023-04-05T11:24:57.880Z,2.70
2023-04-05T11:25:57.830Z,2.70
2023-04-05T11:26:57.797Z,2.80
2023-04-05T11:27:57.807Z,3.00
2023-04-05T11:28:57.786Z,2.90
2023-04-05T11:29:57.777Z,2.90
2023-04-05T11:30:57.813Z,2.80
2023-04-05T11:31:57.736Z,2.70
2023-04-05T11:32:57.767Z,2.80
2023-04-05T11:33:58.435Z,2.80
2023-04-05T11:34:57.720Z,2.50
2023-04-05T11:35:57.717Z,2.70
2023-04-05T11:36:57.672Z,2.60
2023-04-05T11:37:57.665Z,2.80
2023-04-05T11:38:57.653Z,3.10
2023-04-05T11:39:57.632Z,2.70
2023-04-05T11:40:57.636Z,2.80
2023-04-05T11:41:57.605Z,2.80
2023-04-05T11:42:57.601Z,3.00
2023-04-05T11:43:57.605Z,2.70
2023-04-05T11:44:57.617Z,2.60
2023-04-05T11:45:57.660Z,3.00
2023-04-05T11:46:57.573Z,2.70
2023-04-05T11:47:57.600Z,2.90
2023-04-05T11:48:57.519Z,2.80
2023-04-05T11:49:57.596Z,2.60
2023-04-05T11:50:57.490Z,2.70
2023-04-05T11:51:57.589Z,2.60
2023-04-05T11:52:57.490Z,2.80
2023-04-05T11:53:57.454Z,2.70
2023-04-05T11:54:57.441Z,2.80
2023-04-05T11:55:57.437Z,2.80
2023-04-05T11:56:57.436Z,2.70
2023-04-05T11:57:57.399Z,2.70
2023-04-05T11:58:57.521Z,2.70
2023-04-05T11:59:57.398Z,2.90
2023-04-05T12:00:57.363Z,3.00
2023-04-05T12:01:57.390Z,2.80
2023-04-05T12:02:57.523Z,2.90
2023-04-05T12:03:57.552Z,2.90
2023-04-05T12:04:57.446Z,2.90
2023-04-05T12:06:04.318Z,2.80
2023-04-05T12:06:57.294Z,2.60
2023-04-05T12:07:57.265Z,2.70
2023-04-05T12:08:57.261Z,2.80
2023-04-05T12:09:57.238Z,2.60
2023-04-05T12:10:57.235Z,2.70
2023-04-05T12:11:57.244Z,3.00
2023-04-05T12:12:57.205Z,2.70
2023-04-05T12:13:57.185Z,3.00
2023-04-05T12:14:57.171Z,2.70
2023-04-05T12:15:57.351Z,2.70
2023-04-05T12:16:57.171Z,2.80
2023-04-05T12:17:57.181Z,3.20
2023-04-05T12:18:57.124Z,2.60
2023-04-05T12:19:57.111Z,2.90
2023-04-05T12:20:57.100Z,2.70
2023-04-05T12:21:57.098Z,2.70
2023-04-05T12:22:57.091Z,2.70
2023-04-05T12:23:57.058Z,2.80
2023-04-05T12:24:57.050Z,3.10
2023-04-05T12:25:57.027Z,2.90
2023-04-05T12:26:59.223Z,2.50
2023-04-05T12:27:57.004Z,2.80
2023-04-05T12:28:57.021Z,2.90
2023-04-05T12:29:57.060Z,3.00
2023-04-05T12:30:56.977Z,2.80
2023-04-05T12:31:57.065Z,2.60
2023-04-05T12:32:56.966Z,2.80
2023-04-05T12:33:56.925Z,2.90
2023-04-05T12:34:56.917Z,2.80
2023-04-05T12:35:56.918Z,2.70
2023-04-05T12:36:56.900Z,2.60
2023-04-05T12:37:56.872Z,2.50
2023-04-05T12:38:56.862Z,2.70
2023-04-05T12:39:56.848Z,2.70
2023-04-05T12:40:56.835Z,2.70
2023-04-05T12:41:56.917Z,2.40
2023-04-05T12:42:56.816Z,2.70
2023-04-05T12:43:56.796Z,2.80
2023-04-05T12:44:56.790Z,2.60
2023-04-05T12:45:56.816Z,2.60
2023-04-05T12:46:56.781Z,2.70
2023-04-05T12:47:56.841Z,2.60
2023-04-05T12:48:56.746Z,2.60
2023-04-05T12:49:56.717Z,2.60
2023-04-05T12:50:56.721Z,2.30
2023-04-05T12:51:56.743Z,2.50
2023-04-05T12:52:56.680Z,2.50
2023-04-05T12:53:56.669Z,2.60
2023-04-05T12:54:56.661Z,2.50
2023-04-05T12:55:56.694Z,2.60
2023-04-05T12:56:56.665Z,2.90
2023-04-05T12:57:56.617Z,2.60
2023-04-05T12:58:56.643Z,2.90
2023-04-05T12:59:56.595Z,2.60
2023-04-05T13:00:56.585Z,2.70
2023-04-05T13:01:56.587Z,2.60
2023-04-05T13:02:56.619Z,2.50
2023-04-05T13:04:08.484Z,2.50
2023-04-05T13:04:57.564Z,2.40
2023-04-05T13:05:56.516Z,2.60
2023-04-05T13:06:56.537Z,2.30
2023-04-05T13:07:56.497Z,2.40
2023-04-05T13:08:56.476Z,2.50
2023-04-05T13:09:56.464Z,2.80
2023-04-05T13:10:58.060Z,2.60
2023-04-05T13:11:56.449Z,2.50
2023-04-05T13:12:56.461Z,2.70
2023-04-05T13:13:56.408Z,2.60
2023-04-05T13:14:56.448Z,2.80
2023-04-05T13:15:56.412Z,2.60
2023-04-05T13:16:56.378Z,2.90